sensor_id;sensor_type;location;lat;lon;timestamp;P1;durP1;ratioP1;P2;durP2;ratioP2
72601;SDS011;60644;55.858;37.390;2023-09-19T00:02:01;16.60;;;8.40;;
72601;SDS011;60644;55.858;37.390;2023-09-19T00:04:33;15.37;;;8.27;;
72601;SDS011;60644;55.858;37.390;2023-09-19T00:06:59;15.18;;;8.55;;
72601;SDS011;60644;55.858;37.390;2023-09-19T00:09:25;16.30;;;9.20;;
72601;SDS011;60644;55.858;37.390;2023-09-19T00:11:53;13.63;;;8.43;;
72601;SDS011;60644;55.858;37.390;2023-09-19T00:14:19;14.30;;;7.90;;
72601;SDS011;60644;55.858;37.390;2023-09-19T00:16:45;16.88;;;8.38;;
72601;SDS011;60644;55.858;37.390;2023-09-19T00:19:11;14.25;;;8.10;;
72601;SDS011;60644;55.858;37.390;2023-09-19T00:21:37;16.37;;;8.87;;
72601;SDS011;60644;55.858;37.390;2023-09-19T00:24:04;14.00;;;7.57;;
72601;SDS011;60644;55.858;37.390;2023-09-19T00:26:31;15.38;;;7.90;;
72601;SDS011;60644;55.858;37.390;2023-09-19T00:28:57;15.37;;;7.83;;
72601;SDS011;60644;55.858;37.390;2023-09-19T00:31:24;13.65;;;6.70;;
72601;SDS011;60644;55.858;37.390;2023-09-19T00:33:50;16.63;;;8.10;;
72601;SDS011;60644;55.858;37.390;2023-09-19T00:36:17;14.38;;;8.18;;
72601;SDS011;60644;55.858;37.390;2023-09-19T00:38:43;14.15;;;7.07;;
72601;SDS011;60644;55.858;37.390;2023-09-19T00:41:11;15.03;;;7.47;;
72601;SDS011;60644;55.858;37.390;2023-09-19T00:43:38;14.95;;;7.00;;
72601;SDS011;60644;55.858;37.390;2023-09-19T00:46:05;13.63;;;7.55;;
72601;SDS011;60644;55.858;37.390;2023-09-19T00:48:31;14.40;;;7.53;;
72601;SDS011;60644;55.858;37.390;2023-09-19T00:50:59;12.68;;;6.65;;
72601;SDS011;60644;55.858;37.390;2023-09-19T00:53:27;12.00;;;6.80;;
72601;SDS011;60644;55.858;37.390;2023-09-19T00:55:53;16.00;;;7.07;;
72601;SDS011;60644;55.858;37.390;2023-09-19T00:58:20;17.35;;;7.60;;
72601;SDS011;60644;55.858;37.390;2023-09-19T01:00:47;13.00;;;6.90;;
72601;SDS011;60644;55.858;37.390;2023-09-19T01:03:13;14.80;;;7.10;;
72601;SDS011;60644;55.858;37.390;2023-09-19T01:05:40;13.85;;;7.25;;
72601;SDS011;60644;55.858;37.390;2023-09-19T01:08:06;13.37;;;7.30;;
72601;SDS011;60644;55.858;37.390;2023-09-19T01:10:32;13.13;;;7.07;;
72601;SDS011;60644;55.858;37.390;2023-09-19T01:13:06;11.73;;;6.90;;
72601;SDS011;60644;55.858;37.390;2023-09-19T01:20:57;11.83;;;6.70;;
72601;SDS011;60644;55.858;37.390;2023-09-19T01:28:32;14.68;;;6.80;;
72601;SDS011;60644;55.858;37.390;2023-09-19T01:31:03;14.43;;;6.70;;
72601;SDS011;60644;55.858;37.390;2023-09-19T01:36:16;13.27;;;6.63;;
72601;SDS011;60644;55.858;37.390;2023-09-19T01:38:42;11.27;;;6.30;;
72601;SDS011;60644;55.858;37.390;2023-09-19T01:41:10;12.80;;;6.27;;
72601;SDS011;60644;55.858;37.390;2023-09-19T01:43:41;13.32;;;6.55;;
72601;SDS011;60644;55.858;37.390;2023-09-19T01:46:10;12.75;;;6.65;;
72601;SDS011;60644;55.858;37.390;2023-09-19T01:52:05;12.85;;;6.38;;
72601;SDS011;60644;55.858;37.390;2023-09-19T01:54:12;13.27;;;6.22;;
72601;SDS011;60644;55.858;37.390;2023-09-19T01:56:54;13.77;;;5.80;;
72601;SDS011;60644;55.858;37.390;2023-09-19T01:59:28;12.68;;;6.72;;
72601;SDS011;60644;55.858;37.390;2023-09-19T02:01:58;13.23;;;6.00;;
72601;SDS011;60644;55.858;37.390;2023-09-19T02:04:25;13.45;;;6.63;;
72601;SDS011;60644;55.858;37.390;2023-09-19T02:06:52;14.98;;;6.68;;
72601;SDS011;60644;55.858;37.390;2023-09-19T02:09:18;13.13;;;6.40;;
72601;SDS011;60644;55.858;37.390;2023-09-19T02:11:44;12.18;;;6.60;;
72601;SDS011;60644;55.858;37.390;2023-09-19T02:14:10;13.53;;;7.20;;
72601;SDS011;60644;55.858;37.390;2023-09-19T02:16:35;12.63;;;6.70;;
72601;SDS011;60644;55.858;37.390;2023-09-19T02:19:01;13.63;;;7.05;;
72601;SDS011;60644;55.858;37.390;2023-09-19T02:21:31;15.02;;;6.60;;
72601;SDS011;60644;55.858;37.390;2023-09-19T02:23:58;11.88;;;7.22;;
72601;SDS011;60644;55.858;37.390;2023-09-19T02:26:24;13.50;;;6.85;;
72601;SDS011;60644;55.858;37.390;2023-09-19T02:28:50;12.27;;;6.50;;
72601;SDS011;60644;55.858;37.390;2023-09-19T02:31:16;12.30;;;6.90;;
72601;SDS011;60644;55.858;37.390;2023-09-19T02:33:45;14.15;;;7.40;;
72601;SDS011;60644;55.858;37.390;2023-09-19T02:36:12;12.30;;;6.80;;
72601;SDS011;60644;55.858;37.390;2023-09-19T02:38:38;12.75;;;6.38;;
72601;SDS011;60644;55.858;37.390;2023-09-19T02:41:04;15.30;;;7.23;;
72601;SDS011;60644;55.858;37.390;2023-09-19T02:43:30;11.68;;;6.07;;
72601;SDS011;60644;55.858;37.390;2023-09-19T02:45:56;15.23;;;6.90;;
72601;SDS011;60644;55.858;37.390;2023-09-19T02:48:22;13.23;;;7.20;;
72601;SDS011;60644;55.858;37.390;2023-09-19T02:50:51;14.75;;;6.90;;
72601;SDS011;60644;55.858;37.390;2023-09-19T02:53:17;15.18;;;7.32;;
72601;SDS011;60644;55.858;37.390;2023-09-19T02:55:44;16.47;;;7.80;;
72601;SDS011;60644;55.858;37.390;2023-09-19T02:58:10;15.05;;;6.82;;
72601;SDS011;60644;55.858;37.390;2023-09-19T03:00:38;12.40;;;6.90;;
72601;SDS011;60644;55.858;37.390;2023-09-19T03:03:04;13.60;;;6.93;;
72601;SDS011;60644;55.858;37.390;2023-09-19T03:05:32;17.60;;;7.68;;
72601;SDS011;60644;55.858;37.390;2023-09-19T03:07:59;13.67;;;7.17;;
72601;SDS011;60644;55.858;37.390;2023-09-19T03:10:29;13.40;;;6.97;;
72601;SDS011;60644;55.858;37.390;2023-09-19T03:12:57;12.90;;;6.93;;
72601;SDS011;60644;55.858;37.390;2023-09-19T03:15:25;14.10;;;6.80;;
72601;SDS011;60644;55.858;37.390;2023-09-19T03:17:52;14.27;;;6.95;;
72601;SDS011;60644;55.858;37.390;2023-09-19T03:20:21;14.67;;;7.03;;
72601;SDS011;60644;55.858;37.390;2023-09-19T03:22:48;12.77;;;7.53;;
72601;SDS011;60644;55.858;37.390;2023-09-19T03:25:15;14.73;;;7.85;;
72601;SDS011;60644;55.858;37.390;2023-09-19T03:27:46;14.15;;;6.90;;
72601;SDS011;60644;55.858;37.390;2023-09-19T03:30:13;15.30;;;7.07;;
72601;SDS011;60644;55.858;37.390;2023-09-19T03:32:45;13.90;;;7.53;;
72601;SDS011;60644;55.858;37.390;2023-09-19T03:35:12;15.10;;;7.32;;
72601;SDS011;60644;55.858;37.390;2023-09-19T03:37:40;13.60;;;7.13;;
72601;SDS011;60644;55.858;37.390;2023-09-19T03:40:07;13.57;;;7.30;;
72601;SDS011;60644;55.858;37.390;2023-09-19T03:42:33;13.75;;;7.60;;
72601;SDS011;60644;55.858;37.390;2023-09-19T03:45:02;12.90;;;7.17;;
72601;SDS011;60644;55.858;37.390;2023-09-19T03:47:30;13.25;;;7.10;;
72601;SDS011;60644;55.858;37.390;2023-09-19T03:49:58;13.85;;;6.75;;
72601;SDS011;60644;55.858;37.390;2023-09-19T03:52:23;12.85;;;6.82;;
72601;SDS011;60644;55.858;37.390;2023-09-19T03:54:50;13.85;;;7.05;;
72601;SDS011;60644;55.858;37.390;2023-09-19T03:57:16;13.40;;;7.25;;
72601;SDS011;60644;55.858;37.390;2023-09-19T03:59:46;14.15;;;7.13;;
72601;SDS011;60644;55.858;37.390;2023-09-19T04:02:11;13.73;;;7.37;;
72601;SDS011;60644;55.858;37.390;2023-09-19T04:04:48;13.90;;;7.35;;
72601;SDS011;60644;55.858;37.390;2023-09-19T04:07:14;15.95;;;7.57;;
72601;SDS011;60644;55.858;37.390;2023-09-19T04:09:40;12.87;;;7.03;;
72601;SDS011;60644;55.858;37.390;2023-09-19T04:12:06;14.43;;;6.88;;
72601;SDS011;60644;55.858;37.390;2023-09-19T04:14:34;13.80;;;7.47;;
72601;SDS011;60644;55.858;37.390;2023-09-19T04:17:00;11.93;;;6.73;;
72601;SDS011;60644;55.858;37.390;2023-09-19T04:19:26;13.27;;;7.13;;
72601;SDS011;60644;55.858;37.390;2023-09-19T04:21:52;14.35;;;7.50;;
72601;SDS011;60644;55.858;37.390;2023-09-19T04:24:18;13.32;;;7.18;;
72601;SDS011;60644;55.858;37.390;2023-09-19T04:26:45;13.45;;;7.75;;
72601;SDS011;60644;55.858;37.390;2023-09-19T04:29:11;14.50;;;7.13;;
72601;SDS011;60644;55.858;37.390;2023-09-19T04:31:40;15.25;;;7.18;;
72601;SDS011;60644;55.858;37.390;2023-09-19T04:34:06;18.02;;;7.75;;
72601;SDS011;60644;55.858;37.390;2023-09-19T04:36:33;13.07;;;7.57;;
72601;SDS011;60644;55.858;37.390;2023-09-19T04:38:59;13.38;;;7.13;;
72601;SDS011;60644;55.858;37.390;2023-09-19T04:41:24;16.00;;;8.73;;
72601;SDS011;60644;55.858;37.390;2023-09-19T04:43:50;13.70;;;8.10;;
72601;SDS011;60644;55.858;37.390;2023-09-19T04:46:16;13.57;;;8.02;;
72601;SDS011;60644;55.858;37.390;2023-09-19T04:48:43;13.88;;;7.75;;
72601;SDS011;60644;55.858;37.390;2023-09-19T04:51:08;15.60;;;8.48;;
72601;SDS011;60644;55.858;37.390;2023-09-19T04:53:36;14.77;;;7.87;;
72601;SDS011;60644;55.858;37.390;2023-09-19T04:56:01;14.68;;;8.23;;
72601;SDS011;60644;55.858;37.390;2023-09-19T04:58:29;14.07;;;7.80;;
72601;SDS011;60644;55.858;37.390;2023-09-19T05:00:54;16.13;;;8.37;;
72601;SDS011;60644;55.858;37.390;2023-09-19T05:03:20;18.08;;;8.82;;
72601;SDS011;60644;55.858;37.390;2023-09-19T05:05:46;16.13;;;8.63;;
72601;SDS011;60644;55.858;37.390;2023-09-19T05:08:11;16.83;;;9.63;;
72601;SDS011;60644;55.858;37.390;2023-09-19T05:10:40;18.17;;;9.88;;
72601;SDS011;60644;55.858;37.390;2023-09-19T05:13:06;16.17;;;9.88;;
72601;SDS011;60644;55.858;37.390;2023-09-19T05:15:33;17.30;;;9.57;;
72601;SDS011;60644;55.858;37.390;2023-09-19T05:17:59;15.45;;;9.38;;
72601;SDS011;60644;55.858;37.390;2023-09-19T05:20:25;16.70;;;9.87;;
72601;SDS011;60644;55.858;37.390;2023-09-19T05:22:59;18.58;;;10.10;;
72601;SDS011;60644;55.858;37.390;2023-09-19T05:25:28;16.92;;;10.27;;
72601;SDS011;60644;55.858;37.390;2023-09-19T05:27:56;19.10;;;10.95;;
72601;SDS011;60644;55.858;37.390;2023-09-19T05:30:23;19.40;;;11.43;;
72601;SDS011;60644;55.858;37.390;2023-09-19T05:32:49;18.20;;;11.45;;
72601;SDS011;60644;55.858;37.390;2023-09-19T05:35:15;21.95;;;11.27;;
72601;SDS011;60644;55.858;37.390;2023-09-19T05:37:41;21.25;;;11.75;;
72601;SDS011;60644;55.858;37.390;2023-09-19T05:40:07;18.60;;;11.40;;
72601;SDS011;60644;55.858;37.390;2023-09-19T05:42:35;22.02;;;11.55;;
72601;SDS011;60644;55.858;37.390;2023-09-19T05:45:01;17.97;;;10.93;;
72601;SDS011;60644;55.858;37.390;2023-09-19T05:47:29;22.85;;;11.82;;
72601;SDS011;60644;55.858;37.390;2023-09-19T05:49:55;20.87;;;11.30;;
72601;SDS011;60644;55.858;37.390;2023-09-19T05:52:20;18.27;;;10.60;;
72601;SDS011;60644;55.858;37.390;2023-09-19T05:54:47;20.58;;;10.93;;
72601;SDS011;60644;55.858;37.390;2023-09-19T05:57:14;20.42;;;11.82;;
72601;SDS011;60644;55.858;37.390;2023-09-19T05:59:40;20.67;;;11.67;;
72601;SDS011;60644;55.858;37.390;2023-09-19T06:02:08;20.80;;;11.85;;
72601;SDS011;60644;55.858;37.390;2023-09-19T06:04:35;21.30;;;12.25;;
72601;SDS011;60644;55.858;37.390;2023-09-19T06:07:00;21.37;;;11.30;;
72601;SDS011;60644;55.858;37.390;2023-09-19T06:09:27;19.77;;;11.52;;
72601;SDS011;60644;55.858;37.390;2023-09-19T06:11:53;21.15;;;11.32;;
72601;SDS011;60644;55.858;37.390;2023-09-19T06:14:20;21.33;;;11.38;;
72601;SDS011;60644;55.858;37.390;2023-09-19T06:16:47;18.77;;;10.90;;
72601;SDS011;60644;55.858;37.390;2023-09-19T06:19:13;22.63;;;11.10;;
72601;SDS011;60644;55.858;37.390;2023-09-19T06:21:39;20.55;;;11.40;;
72601;SDS011;60644;55.858;37.390;2023-09-19T06:24:05;19.40;;;11.70;;
72601;SDS011;60644;55.858;37.390;2023-09-19T06:26:31;19.83;;;11.00;;
72601;SDS011;60644;55.858;37.390;2023-09-19T06:28:57;19.85;;;11.70;;
72601;SDS011;60644;55.858;37.390;2023-09-19T06:31:25;18.38;;;10.55;;
72601;SDS011;60644;55.858;37.390;2023-09-19T06:33:52;26.67;;;12.23;;
72601;SDS011;60644;55.858;37.390;2023-09-19T06:36:18;21.13;;;11.52;;
72601;SDS011;60644;55.858;37.390;2023-09-19T06:38:44;26.75;;;13.30;;
72601;SDS011;60644;55.858;37.390;2023-09-19T06:41:10;20.83;;;12.00;;
72601;SDS011;60644;55.858;37.390;2023-09-19T06:43:36;21.67;;;11.77;;
72601;SDS011;60644;55.858;37.390;2023-09-19T06:46:02;20.58;;;10.93;;
72601;SDS011;60644;55.858;37.390;2023-09-19T06:48:29;17.88;;;11.32;;
72601;SDS011;60644;55.858;37.390;2023-09-19T06:50:58;23.97;;;11.80;;
72601;SDS011;60644;55.858;37.390;2023-09-19T06:53:29;19.10;;;11.35;;
72601;SDS011;60644;55.858;37.390;2023-09-19T06:55:57;22.17;;;11.90;;
72601;SDS011;60644;55.858;37.390;2023-09-19T06:58:23;22.00;;;11.70;;
72601;SDS011;60644;55.858;37.390;2023-09-19T07:00:49;24.75;;;12.15;;
72601;SDS011;60644;55.858;37.390;2023-09-19T07:03:16;21.38;;;11.82;;
72601;SDS011;60644;55.858;37.390;2023-09-19T07:05:44;21.17;;;11.27;;
72601;SDS011;60644;55.858;37.390;2023-09-19T07:08:10;20.70;;;11.67;;
72601;SDS011;60644;55.858;37.390;2023-09-19T07:10:38;22.35;;;11.65;;
72601;SDS011;60644;55.858;37.390;2023-09-19T07:13:14;24.45;;;12.82;;
72601;SDS011;60644;55.858;37.390;2023-09-19T07:15:42;21.25;;;11.90;;
72601;SDS011;60644;55.858;37.390;2023-09-19T07:18:12;20.58;;;12.10;;
72601;SDS011;60644;55.858;37.390;2023-09-19T07:20:40;21.67;;;11.70;;
72601;SDS011;60644;55.858;37.390;2023-09-19T07:23:11;23.48;;;12.55;;
72601;SDS011;60644;55.858;37.390;2023-09-19T07:25:41;21.33;;;12.00;;
72601;SDS011;60644;55.858;37.390;2023-09-19T07:28:07;20.00;;;11.93;;
72601;SDS011;60644;55.858;37.390;2023-09-19T07:30:35;23.23;;;12.40;;
72601;SDS011;60644;55.858;37.390;2023-09-19T07:33:02;21.77;;;12.00;;
72601;SDS011;60644;55.858;37.390;2023-09-19T07:35:30;21.05;;;11.95;;
72601;SDS011;60644;55.858;37.390;2023-09-19T07:37:56;23.37;;;12.10;;
72601;SDS011;60644;55.858;37.390;2023-09-19T07:40:23;21.08;;;12.48;;
72601;SDS011;60644;55.858;37.390;2023-09-19T07:42:57;21.98;;;13.68;;
72601;SDS011;60644;55.858;37.390;2023-09-19T07:45:33;25.02;;;13.48;;
72601;SDS011;60644;55.858;37.390;2023-09-19T07:47:59;25.42;;;12.93;;
72601;SDS011;60644;55.858;37.390;2023-09-19T07:50:26;21.97;;;12.83;;
72601;SDS011;60644;55.858;37.390;2023-09-19T07:52:52;21.92;;;12.50;;
72601;SDS011;60644;55.858;37.390;2023-09-19T07:55:19;22.65;;;14.05;;
72601;SDS011;60644;55.858;37.390;2023-09-19T07:57:48;22.07;;;12.83;;
72601;SDS011;60644;55.858;37.390;2023-09-19T08:00:14;23.35;;;13.40;;
72601;SDS011;60644;55.858;37.390;2023-09-19T08:02:40;26.30;;;14.05;;
72601;SDS011;60644;55.858;37.390;2023-09-19T08:05:07;22.90;;;13.23;;
72601;SDS011;60644;55.858;37.390;2023-09-19T08:07:45;23.45;;;13.43;;
72601;SDS011;60644;55.858;37.390;2023-09-19T08:10:14;25.07;;;14.13;;
72601;SDS011;60644;55.858;37.390;2023-09-19T08:12:44;24.20;;;13.40;;
72601;SDS011;60644;55.858;37.390;2023-09-19T08:15:14;28.92;;;14.35;;
72601;SDS011;60644;55.858;37.390;2023-09-19T08:17:40;21.98;;;12.85;;
72601;SDS011;60644;55.858;37.390;2023-09-19T08:20:06;23.10;;;13.73;;
72601;SDS011;60644;55.858;37.390;2023-09-19T08:22:35;24.10;;;13.60;;
72601;SDS011;60644;55.858;37.390;2023-09-19T08:25:01;25.33;;;13.07;;
72601;SDS011;60644;55.858;37.390;2023-09-19T08:27:29;23.20;;;13.30;;
72601;SDS011;60644;55.858;37.390;2023-09-19T08:29:56;21.92;;;14.23;;
72601;SDS011;60644;55.858;37.390;2023-09-19T08:32:22;23.93;;;13.87;;
72601;SDS011;60644;55.858;37.390;2023-09-19T08:34:50;26.50;;;14.77;;
72601;SDS011;60644;55.858;37.390;2023-09-19T08:37:16;22.05;;;13.95;;
72601;SDS011;60644;55.858;37.390;2023-09-19T08:39:43;39.28;;;21.70;;
72601;SDS011;60644;55.858;37.390;2023-09-19T08:42:10;84.10;;;48.10;;
72601;SDS011;60644;55.858;37.390;2023-09-19T08:44:37;96.28;;;51.42;;
72601;SDS011;60644;55.858;37.390;2023-09-19T08:47:10;66.28;;;38.78;;
72601;SDS011;60644;55.858;37.390;2023-09-19T08:52:05;30.10;;;17.57;;
72601;SDS011;60644;55.858;37.390;2023-09-19T08:54:37;41.83;;;22.65;;
72601;SDS011;60644;55.858;37.390;2023-09-19T08:57:07;49.05;;;27.20;;
72601;SDS011;60644;55.858;37.390;2023-09-19T08:59:40;31.27;;;17.08;;
72601;SDS011;60644;55.858;37.390;2023-09-19T09:02:11;44.93;;;24.93;;
72601;SDS011;60644;55.858;37.390;2023-09-19T09:04:38;34.42;;;18.63;;
72601;SDS011;60644;55.858;37.390;2023-09-19T09:07:04;32.70;;;17.58;;
72601;SDS011;60644;55.858;37.390;2023-09-19T09:09:30;26.02;;;15.65;;
72601;SDS011;60644;55.858;37.390;2023-09-19T09:11:59;21.30;;;13.13;;
72601;SDS011;60644;55.858;37.390;2023-09-19T09:14:28;23.52;;;13.02;;
72601;SDS011;60644;55.858;37.390;2023-09-19T09:16:58;23.95;;;13.80;;
72601;SDS011;60644;55.858;37.390;2023-09-19T09:19:24;22.67;;;13.88;;
72601;SDS011;60644;55.858;37.390;2023-09-19T09:21:51;23.02;;;12.90;;
72601;SDS011;60644;55.858;37.390;2023-09-19T09:24:29;26.93;;;14.17;;
72601;SDS011;60644;55.858;37.390;2023-09-19T09:26:59;23.35;;;13.70;;
72601;SDS011;60644;55.858;37.390;2023-09-19T09:29:45;26.60;;;15.00;;
72601;SDS011;60644;55.858;37.390;2023-09-19T09:32:17;23.02;;;12.63;;
72601;SDS011;60644;55.858;37.390;2023-09-19T09:34:53;25.67;;;13.25;;
72601;SDS011;60644;55.858;37.390;2023-09-19T09:37:22;22.53;;;13.13;;
72601;SDS011;60644;55.858;37.390;2023-09-19T09:39:54;23.65;;;13.18;;
72601;SDS011;60644;55.858;37.390;2023-09-19T09:42:32;22.83;;;13.95;;
72601;SDS011;60644;55.858;37.390;2023-09-19T09:47:47;23.05;;;12.88;;
72601;SDS011;60644;55.858;37.390;2023-09-19T09:50:26;26.70;;;14.27;;
72601;SDS011;60644;55.858;37.390;2023-09-19T09:52:55;23.80;;;12.77;;
72601;SDS011;60644;55.858;37.390;2023-09-19T09:55:30;25.25;;;13.60;;
72601;SDS011;60644;55.858;37.390;2023-09-19T09:58:17;25.98;;;13.52;;
72601;SDS011;60644;55.858;37.390;2023-09-19T10:00:54;22.10;;;13.65;;
72601;SDS011;60644;55.858;37.390;2023-09-19T10:03:37;24.17;;;13.77;;
72601;SDS011;60644;55.858;37.390;2023-09-19T10:06:10;21.45;;;13.43;;
72601;SDS011;60644;55.858;37.390;2023-09-19T10:09:07;25.45;;;13.30;;
72601;SDS011;60644;55.858;37.390;2023-09-19T10:11:41;22.98;;;14.02;;
72601;SDS011;60644;55.858;37.390;2023-09-19T10:14:09;23.08;;;13.93;;
72601;SDS011;60644;55.858;37.390;2023-09-19T10:16:47;24.17;;;13.30;;
72601;SDS011;60644;55.858;37.390;2023-09-19T10:22:02;24.55;;;13.85;;
72601;SDS011;60644;55.858;37.390;2023-09-19T10:24:28;22.58;;;14.27;;
72601;SDS011;60644;55.858;37.390;2023-09-19T10:26:57;23.88;;;14.55;;
72601;SDS011;60644;55.858;37.390;2023-09-19T10:29:23;25.07;;;13.07;;
72601;SDS011;60644;55.858;37.390;2023-09-19T10:31:52;22.23;;;13.98;;
72601;SDS011;60644;55.858;37.390;2023-09-19T10:34:19;26.58;;;14.02;;
72601;SDS011;60644;55.858;37.390;2023-09-19T10:36:46;22.38;;;14.32;;
72601;SDS011;60644;55.858;37.390;2023-09-19T10:39:13;22.90;;;13.45;;
72601;SDS011;60644;55.858;37.390;2023-09-19T10:41:43;25.97;;;14.23;;
72601;SDS011;60644;55.858;37.390;2023-09-19T10:44:14;25.40;;;15.20;;
72601;SDS011;60644;55.858;37.390;2023-09-19T10:46:50;23.40;;;13.70;;
72601;SDS011;60644;55.858;37.390;2023-09-19T10:49:28;27.83;;;14.93;;
72601;SDS011;60644;55.858;37.390;2023-09-19T10:51:57;24.42;;;14.50;;
72601;SDS011;60644;55.858;37.390;2023-09-19T10:54:28;23.60;;;14.00;;
72601;SDS011;60644;55.858;37.390;2023-09-19T10:56:54;21.40;;;13.30;;
72601;SDS011;60644;55.858;37.390;2023-09-19T10:59:24;25.77;;;13.98;;
72601;SDS011;60644;55.858;37.390;2023-09-19T11:01:52;23.30;;;14.25;;
72601;SDS011;60644;55.858;37.390;2023-09-19T11:04:30;29.95;;;13.95;;
72601;SDS011;60644;55.858;37.390;2023-09-19T11:07:01;23.60;;;14.27;;
72601;SDS011;60644;55.858;37.390;2023-09-19T11:09:42;24.77;;;13.85;;
72601;SDS011;60644;55.858;37.390;2023-09-19T11:12:10;21.73;;;13.57;;
72601;SDS011;60644;55.858;37.390;2023-09-19T11:14:39;24.67;;;12.90;;
72601;SDS011;60644;55.858;37.390;2023-09-19T11:30:52;21.63;;;13.90;;
72601;SDS011;60644;55.858;37.390;2023-09-19T11:33:34;24.65;;;14.10;;
72601;SDS011;60644;55.858;37.390;2023-09-19T11:36:11;21.15;;;12.77;;
72601;SDS011;60644;55.858;37.390;2023-09-19T11:39:06;23.00;;;14.20;;
72601;SDS011;60644;55.858;37.390;2023-09-19T11:41:50;25.93;;;13.80;;
72601;SDS011;60644;55.858;37.390;2023-09-19T11:46:54;22.38;;;13.50;;
72601;SDS011;60644;55.858;37.390;2023-09-19T11:49:28;18.73;;;12.80;;
72601;SDS011;60644;55.858;37.390;2023-09-19T11:52:20;23.38;;;13.27;;
72601;SDS011;60644;55.858;37.390;2023-09-19T11:55:02;21.23;;;12.73;;
72601;SDS011;60644;55.858;37.390;2023-09-19T11:57:29;22.88;;;12.27;;
72601;SDS011;60644;55.858;37.390;2023-09-19T12:00:01;25.20;;;13.73;;
72601;SDS011;60644;55.858;37.390;2023-09-19T12:02:39;21.83;;;12.48;;
72601;SDS011;60644;55.858;37.390;2023-09-19T12:05:28;19.73;;;11.82;;
72601;SDS011;60644;55.858;37.390;2023-09-19T12:07:57;21.93;;;13.00;;
72601;SDS011;60644;55.858;37.390;2023-09-19T12:10:23;21.23;;;12.52;;
72601;SDS011;60644;55.858;37.390;2023-09-19T12:12:50;20.13;;;11.85;;
72601;SDS011;60644;55.858;37.390;2023-09-19T12:15:25;18.90;;;12.35;;
72601;SDS011;60644;55.858;37.390;2023-09-19T12:18:00;22.25;;;11.65;;
72601;SDS011;60644;55.858;37.390;2023-09-19T12:20:42;21.90;;;12.23;;
72601;SDS011;60644;55.858;37.390;2023-09-19T12:23:15;21.10;;;11.75;;
72601;SDS011;60644;55.858;37.390;2023-09-19T12:25:42;20.13;;;11.30;;
72601;SDS011;60644;55.858;37.390;2023-09-19T12:28:12;22.92;;;12.23;;
72601;SDS011;60644;55.858;37.390;2023-09-19T12:30:38;20.87;;;11.50;;
72601;SDS011;60644;55.858;37.390;2023-09-19T12:33:23;23.80;;;12.95;;
72601;SDS011;60644;55.858;37.390;2023-09-19T12:35:52;19.92;;;12.18;;
72601;SDS011;60644;55.858;37.390;2023-09-19T12:38:27;22.25;;;11.55;;
72601;SDS011;60644;55.858;37.390;2023-09-19T12:41:01;22.63;;;12.52;;
72601;SDS011;60644;55.858;37.390;2023-09-19T12:43:30;18.73;;;11.27;;
72601;SDS011;60644;55.858;37.390;2023-09-19T12:45:59;17.40;;;11.63;;
72601;SDS011;60644;55.858;37.390;2023-09-19T12:48:28;16.77;;;10.73;;
72601;SDS011;60644;55.858;37.390;2023-09-19T12:51:00;18.70;;;10.48;;
72601;SDS011;60644;55.858;37.390;2023-09-19T12:53:39;22.45;;;12.98;;
72601;SDS011;60644;55.858;37.390;2023-09-19T12:56:10;22.27;;;12.10;;
72601;SDS011;60644;55.858;37.390;2023-09-19T12:58:53;17.58;;;11.32;;
72601;SDS011;60644;55.858;37.390;2023-09-19T13:01:23;19.35;;;10.65;;
72601;SDS011;60644;55.858;37.390;2023-09-19T13:06:46;17.33;;;10.90;;
72601;SDS011;60644;55.858;37.390;2023-09-19T13:09:15;17.03;;;10.40;;
72601;SDS011;60644;55.858;37.390;2023-09-19T13:11:44;18.80;;;10.57;;
72601;SDS011;60644;55.858;37.390;2023-09-19T13:16:58;19.95;;;10.98;;
72601;SDS011;60644;55.858;37.390;2023-09-19T13:24:50;18.52;;;10.45;;
72601;SDS011;60644;55.858;37.390;2023-09-19T13:27:36;20.42;;;10.50;;
72601;SDS011;60644;55.858;37.390;2023-09-19T13:30:02;17.40;;;10.15;;
72601;SDS011;60644;55.858;37.390;2023-09-19T13:32:32;17.10;;;10.20;;
72601;SDS011;60644;55.858;37.390;2023-09-19T13:34:58;19.05;;;9.88;;
72601;SDS011;60644;55.858;37.390;2023-09-19T13:37:24;16.52;;;9.70;;
72601;SDS011;60644;55.858;37.390;2023-09-19T13:39:52;20.73;;;10.35;;
72601;SDS011;60644;55.858;37.390;2023-09-19T13:42:17;21.42;;;9.65;;
72601;SDS011;60644;55.858;37.390;2023-09-19T13:44:44;16.97;;;9.77;;
72601;SDS011;60644;55.858;37.390;2023-09-19T13:47:10;17.73;;;9.27;;
72601;SDS011;60644;55.858;37.390;2023-09-19T13:49:39;20.80;;;9.55;;
72601;SDS011;60644;55.858;37.390;2023-09-19T13:52:04;17.52;;;9.15;;
72601;SDS011;60644;55.858;37.390;2023-09-19T13:54:34;15.80;;;8.37;;
72601;SDS011;60644;55.858;37.390;2023-09-19T13:57:02;16.27;;;8.20;;
72601;SDS011;60644;55.858;37.390;2023-09-19T13:59:28;16.50;;;7.78;;
72601;SDS011;60644;55.858;37.390;2023-09-19T14:01:56;13.57;;;7.40;;
72601;SDS011;60644;55.858;37.390;2023-09-19T14:04:22;12.83;;;6.80;;
72601;SDS011;60644;55.858;37.390;2023-09-19T14:06:48;11.52;;;5.60;;
72601;SDS011;60644;55.858;37.390;2023-09-19T14:09:14;11.68;;;5.78;;
72601;SDS011;60644;55.858;37.390;2023-09-19T14:11:41;10.10;;;4.90;;
72601;SDS011;60644;55.858;37.390;2023-09-19T14:14:07;12.07;;;5.33;;
72601;SDS011;60644;55.858;37.390;2023-09-19T14:16:33;15.40;;;5.50;;
72601;SDS011;60644;55.858;37.390;2023-09-19T14:18:59;11.77;;;5.23;;
72601;SDS011;60644;55.858;37.390;2023-09-19T14:21:25;8.52;;;5.05;;
72601;SDS011;60644;55.858;37.390;2023-09-19T14:23:51;9.65;;;5.40;;
72601;SDS011;60644;55.858;37.390;2023-09-19T14:26:20;12.27;;;5.32;;
72601;SDS011;60644;55.858;37.390;2023-09-19T14:28:45;14.03;;;5.80;;
72601;SDS011;60644;55.858;37.390;2023-09-19T14:31:11;11.60;;;5.13;;
72601;SDS011;60644;55.858;37.390;2023-09-19T14:33:38;10.68;;;5.00;;
72601;SDS011;60644;55.858;37.390;2023-09-19T14:36:07;10.83;;;5.13;;
72601;SDS011;60644;55.858;37.390;2023-09-19T14:38:37;8.75;;;4.70;;
72601;SDS011;60644;55.858;37.390;2023-09-19T14:41:04;11.10;;;5.75;;
72601;SDS011;60644;55.858;37.390;2023-09-19T14:43:31;8.52;;;4.75;;
72601;SDS011;60644;55.858;37.390;2023-09-19T14:46:05;9.27;;;5.05;;
72601;SDS011;60644;55.858;37.390;2023-09-19T14:48:33;8.63;;;4.90;;
72601;SDS011;60644;55.858;37.390;2023-09-19T14:51:03;11.98;;;5.00;;
72601;SDS011;60644;55.858;37.390;2023-09-19T14:53:30;11.80;;;4.80;;
72601;SDS011;60644;55.858;37.390;2023-09-19T14:55:55;10.15;;;5.05;;
72601;SDS011;60644;55.858;37.390;2023-09-19T14:58:21;12.20;;;5.23;;
72601;SDS011;60644;55.858;37.390;2023-09-19T15:00:47;8.75;;;4.45;;
72601;SDS011;60644;55.858;37.390;2023-09-19T15:03:13;14.20;;;5.30;;
72601;SDS011;60644;55.858;37.390;2023-09-19T15:05:43;12.23;;;5.30;;
72601;SDS011;60644;55.858;37.390;2023-09-19T15:08:09;11.93;;;6.03;;
72601;SDS011;60644;55.858;37.390;2023-09-19T15:10:36;8.57;;;5.63;;
72601;SDS011;60644;55.858;37.390;2023-09-19T15:13:04;10.57;;;4.80;;
72601;SDS011;60644;55.858;37.390;2023-09-19T15:15:31;10.80;;;5.93;;
72601;SDS011;60644;55.858;37.390;2023-09-19T15:17:57;14.20;;;6.25;;